Terminal Aerodrome Forecast
Issued by NWS Grand Junction, CO

Home | Current Version | Previous Version | Text Only | Print | Product List | Glossary On
Versions: 1 2 3 4 5 6 7 8 9 10 11 12 13 14 15 16 17 18 19 20 21 22 23 24 25 26 27 28 29 30
000
FTUS45 KGJT 250533
TAFGJT
TAF
KGJT 250533Z 2506/2606 08007KT P6SM SKC
      TEMPO 2506/2508 05013G22KT
     FM251200 09007KT P6SM SKC
     FM251500 12007KT P6SM SKC
     FM251800 VRB05KT P6SM SKC
     FM252000 29006KT P6SM SKC
     FM260200 01005KT P6SM SKC=

USA.gov is the U.S. government's official web portal to all federal, state and local government web resources and services.